Time;durP1;ratioP1;P1;durP2;ratioP2;P2;SDS_P1;SDS_P2;PMS_P1;PMS_P2;Temp;Humidity;BMP_temperature;BMP_pressure;BME280_temperature;BME280_humidity;BME280_pressure;Samples;Min_cycle;Max_cycle;Signal;HPM_P1;HPM_P2
2022/06/07 00:01:32;;;;;;;10.10;6.27;;;;;;;26.93;46.74;94512.88;5079736;28;20404;-76
2022/06/07 00:03:57;;;;;;;7.90;7.20;;;;;;;26.99;46.68;94517.03;5080330;28;20975;-77
2022/06/07 00:06:23;;;;;;;8.90;7.53;;;;;;;27.30;45.96;94515.59;5076749;28;20190;-76
2022/06/07 00:08:49;;;;;;;7.70;7.00;;;;;;;26.95;46.54;94512.56;5085425;28;20207;-76
2022/06/07 00:11:14;;;;;;;8.50;7.30;;;;;;;26.29;47.98;94524.31;5086458;28;20257;-75
2022/06/07 00:13:40;;;;;;;10.33;6.60;;;;;;;26.66;47.31;94521.75;5085474;28;20181;-76
2022/06/07 00:16:05;;;;;;;10.83;6.80;;;;;;;26.90;46.74;94526.09;5086034;28;20226;-75
2022/06/07 00:18:31;;;;;;;7.20;6.53;;;;;;;26.77;47.23;94527.69;5076474;28;20223;-75
2022/06/07 00:20:56;;;;;;;7.90;7.10;;;;;;;27.17;46.07;94525.28;5085180;28;20174;-75
2022/06/07 00:23:21;;;;;;;9.53;7.50;;;;;;;27.03;46.47;94526.09;5081214;28;20183;-76
2022/06/07 00:25:52;;;;;;;11.30;6.60;;;;;;;27.36;45.87;94527.84;5073482;28;20606;-75
2022/06/07 00:28:20;;;;;;;7.87;7.27;;;;;;;27.02;46.41;94519.13;5087385;28;20689;-76
2022/06/07 00:30:46;;;;;;;7.73;6.87;;;;;;;26.53;47.72;94515.25;5075990;28;20463;-76
2022/06/07 00:33:12;;;;;;;8.90;8.10;;;;;;;25.68;49.74;94514.59;5082870;28;20446;-75
2022/06/07 00:35:38;;;;;;;8.03;7.23;;;;;;;25.82;49.61;94514.63;5083983;28;20450;-76
2022/06/07 00:38:03;;;;;;;8.60;8.00;;;;;;;26.01;49.70;94520.78;5080809;28;20416;-76
2022/06/07 00:40:29;;;;;;;7.90;7.40;;;;;;;26.36;48.69;94517.75;5084666;28;20227;-76
2022/06/07 00:42:54;;;;;;;8.23;7.20;;;;;;;26.64;48.08;94516.69;5085276;28;20225;-75
2022/06/07 00:45:22;;;;;;;9.03;8.10;;;;;;;26.14;49.08;94521.88;5084636;28;20260;-76
2022/06/07 00:47:48;;;;;;;12.23;8.30;;;;;;;25.65;49.80;94525.88;5073544;28;20253;-76
2022/06/07 00:50:30;;;;;;;9.07;8.27;;;;;;;25.51;50.34;94523.94;5083763;28;20448;-76
2022/06/07 00:52:56;;;;;;;8.23;7.43;;;;;;;25.76;49.77;94526.53;5084460;28;20162;-76
2022/06/07 00:55:21;;;;;;;10.83;8.07;;;;;;;25.79;49.96;94532.09;5084811;28;20503;-76
2022/06/07 00:57:48;;;;;;;9.00;8.30;;;;;;;25.62;50.23;94534.53;5074211;28;20269;-75
2022/06/07 01:00:16;;;;;;;8.40;7.53;;;;;;;25.86;49.48;94527.16;5080226;28;20201;-76
2022/06/07 01:02:41;;;;;;;9.13;8.30;;;;;;;25.99;49.11;94527.50;5084558;28;20435;-76
2022/06/07 01:05:08;;;;;;;8.67;7.90;;;;;;;26.34;48.49;94525.28;5081403;28;20429;-76
2022/06/07 01:13:01;;;;;;;12.63;7.40;;;;;;;26.18;48.22;94525.56;5083569;28;20399;-75
2022/06/07 01:15:26;;;;;;;8.00;7.40;;;;;;;26.32;48.35;94522.13;5079219;28;20424;-75
2022/06/07 01:17:52;;;;;;;8.33;7.50;;;;;;;25.45;50.18;94527.78;5079520;28;20829;-76
2022/06/07 01:20:18;;;;;;;8.07;7.37;;;;;;;25.60;50.06;94529.44;5076157;28;20240;-75
2022/06/07 01:22:43;;;;;;;8.77;7.90;;;;;;;25.88;49.12;94529.56;5084425;28;20169;-76
2022/06/07 01:25:10;;;;;;;10.93;7.73;;;;;;;26.11;48.60;94522.47;5079763;28;20186;-75
2022/06/07 01:27:35;;;;;;;8.40;7.70;;;;;;;26.33;48.31;94529.06;5077268;28;20184;-76
2022/06/07 01:30:00;;;;;;;7.87;7.27;;;;;;;26.51;47.94;94522.81;5084687;28;20432;-77
2022/06/07 01:32:26;;;;;;;6.50;5.90;;;;;;;26.67;47.39;94523.34;5078103;28;20169;-76
2022/06/07 01:34:53;;;;;;;9.50;8.60;;;;;;;26.57;47.78;94526.19;5083673;28;20217;-77
2022/06/07 01:37:19;;;;;;;10.60;6.77;;;;;;;26.41;48.18;94531.84;5084876;28;20233;-76
2022/06/07 01:42:30;;;;;;;7.50;6.80;;;;;;;26.78;46.33;94529.31;5084652;28;20439;-76
2022/06/07 01:44:56;;;;;;;7.77;7.13;;;;;;;26.26;47.89;94534.84;5076204;28;20431;-76
2022/06/07 01:47:30;;;;;;;7.83;7.07;;;;;;;26.28;48.47;94530.75;5083325;28;20434;-76
2022/06/07 01:49:56;;;;;;;7.30;6.60;;;;;;;26.50;48.01;94529.25;5077559;28;20446;-76
2022/06/07 01:52:26;;;;;;;7.50;6.83;;;;;;;26.74;47.40;94517.56;5076421;28;20420;-77
2022/06/07 01:54:51;;;;;;;7.70;7.00;;;;;;;26.90;47.08;94510.81;5079465;28;20178;-77
2022/06/07 01:57:18;;;;;;;7.57;7.07;;;;;;;27.12;46.01;94503.88;5084126;28;20412;-76
2022/06/07 01:59:43;;;;;;;8.07;7.37;;;;;;;26.75;47.09;94514.59;5082686;28;20202;-77
2022/06/07 02:02:09;;;;;;;7.37;6.70;;;;;;;26.68;47.51;94514.97;5079056;28;20420;-76
2022/06/07 02:04:40;;;;;;;7.60;7.00;;;;;;;26.83;47.32;94510.41;5084340;28;20182;-77
2022/06/07 02:07:06;;;;;;;7.33;6.63;;;;;;;26.81;47.24;94499.19;5083633;28;20943;-76
2022/06/07 02:09:32;;;;;;;7.30;6.80;;;;;;;26.96;47.26;94506.09;5082431;28;20440;-75
2022/06/07 02:11:59;;;;;;;6.63;5.97;;;;;;;26.99;47.07;94508.97;5084305;28;20430;-75
2022/06/07 02:14:25;;;;;;;6.63;6.23;;;;;;;26.94;46.72;94497.53;5082229;28;20431;-76
2022/06/07 02:16:50;;;;;;;8.53;7.83;;;;;;;27.23;46.18;94514.09;5083142;28;20408;-75
2022/06/07 02:19:16;;;;;;;8.13;7.53;;;;;;;26.52;47.31;94508.28;5081024;28;20520;-75
2022/06/07 02:21:42;;;;;;;6.67;6.17;;;;;;;26.71;47.11;94497.47;5076417;28;20184;-75
2022/06/07 02:24:08;;;;;;;7.77;6.90;;;;;;;26.70;46.90;94512.00;5082379;28;20174;-75
2022/06/07 02:26:45;;;;;;;15.83;7.80;;;;;;;25.98;48.34;94512.53;5078713;28;20397;-75
2022/06/07 02:29:16;;;;;;;9.10;7.53;;;;;;;26.40;47.92;94513.38;5077243;28;20824;-75
2022/06/07 02:31:58;;;;;;;6.70;6.17;;;;;;;26.36;48.07;94515.06;5082541;28;20486;-76
2022/06/07 02:34:25;;;;;;;6.73;6.23;;;;;;;26.56;47.87;94517.34;5115214;28;20486;-75
2022/06/07 02:36:55;;;;;;;7.23;6.73;;;;;;;26.92;47.08;94519.34;5082626;28;20423;-75
2022/06/07 02:39:22;;;;;;;7.50;6.80;;;;;;;27.10;47.03;94527.56;5080332;28;20467;-75
2022/06/07 02:41:50;;;;;;;6.73;5.67;;;;;;;27.17;46.73;94519.91;5076943;28;20422;-75
2022/06/07 02:44:16;;;;;;;7.00;6.40;;;;;;;27.33;46.41;94518.47;5082890;28;20436;-76
2022/06/07 02:46:41;;;;;;;7.93;7.10;;;;;;;27.13;46.05;94514.34;5081220;28;20428;-75
2022/06/07 02:49:06;;;;;;;8.40;7.63;;;;;;;26.13;48.03;94517.63;5066620;28;20171;-75
2022/06/07 02:51:32;;;;;;;8.03;7.20;;;;;;;26.66;47.07;94514.50;5079291;28;20224;-76
2022/06/07 02:53:58;;;;;;;9.03;6.37;;;;;;;26.49;46.21;94514.28;5080211;28;20241;-76
2022/06/07 02:56:23;;;;;;;6.00;5.60;;;;;;;26.42;46.61;94521.91;5085123;28;20180;-75
2022/06/07 02:58:49;;;;;;;7.10;6.50;;;;;;;26.67;46.81;94524.16;5080491;28;20204;-75
2022/06/07 03:01:14;;;;;;;7.23;6.53;;;;;;;26.71;46.32;94527.00;5087218;28;20165;-75
2022/06/07 03:03:40;;;;;;;8.30;7.57;;;;;;;26.72;46.50;94533.19;5087500;28;20502;-76
2022/06/07 03:06:06;;;;;;;8.17;7.37;;;;;;;26.35;47.65;94540.28;5086768;28;20180;-75
2022/06/07 03:08:32;;;;;;;9.57;8.73;;;;;;;25.11;50.65;94541.38;5087207;28;20174;-75
2022/06/07 03:10:57;;;;;;;8.47;7.53;;;;;;;26.36;48.14;94549.94;5083656;28;20188;-75
2022/06/07 03:13:23;;;;;;;8.97;8.10;;;;;;;25.66;49.36;94551.59;5086768;28;20194;-75
2022/06/07 03:15:49;;;;;;;8.43;7.73;;;;;;;25.82;49.04;94552.97;5077617;28;20165;-75
2022/06/07 03:18:14;;;;;;;8.83;7.97;;;;;;;25.96;48.67;94554.94;5086856;28;20422;-75
2022/06/07 03:20:41;;;;;;;7.47;6.87;;;;;;;25.77;48.32;94555.72;5086025;28;20181;-75
2022/06/07 03:23:07;;;;;;;13.80;8.60;;;;;;;25.97;48.15;94554.66;5083207;28;20645;-75
2022/06/07 03:25:33;;;;;;;8.40;7.53;;;;;;;25.76;48.50;94556.81;5087539;28;20424;-75
2022/06/07 03:27:59;;;;;;;8.67;7.87;;;;;;;24.24;51.75;94561.88;5081052;28;20483;-75
2022/06/07 03:30:25;;;;;;;8.53;7.90;;;;;;;25.07;49.96;94562.56;5085578;28;20446;-75
2022/06/07 03:32:51;;;;;;;8.37;7.23;;;;;;;25.40;49.32;94557.38;5087624;28;20188;-75
2022/06/07 03:35:16;;;;;;;8.00;7.30;;;;;;;25.95;48.63;94564.84;5084681;28;20217;-75
2022/06/07 03:37:42;;;;;;;10.73;7.17;;;;;;;25.42;48.76;94555.19;5077760;28;20507;-76
2022/06/07 03:40:11;;;;;;;9.50;6.60;;;;;;;25.66;48.18;94554.28;5081716;28;20230;-76
2022/06/07 03:42:37;;;;;;;9.93;7.37;;;;;;;26.22;46.93;94560.66;5080789;28;20488;-76
2022/06/07 03:45:03;;;;;;;7.73;7.13;;;;;;;26.56;46.44;94563.00;5081294;28;20448;-75
2022/06/07 03:47:29;;;;;;;7.00;6.40;;;;;;;26.64;46.09;94556.94;5077178;28;20459;-75
2022/06/07 03:49:54;;;;;;;7.83;7.23;;;;;;;26.96;45.80;94557.94;5081684;28;20420;-75
2022/06/07 03:52:19;;;;;;;8.07;7.40;;;;;;;27.17;44.93;94562.91;5085710;28;20195;-76
2022/06/07 03:54:45;;;;;;;18.13;7.87;;;;;;;26.85;46.07;94556.56;5086065;28;20224;-76
2022/06/07 03:57:11;;;;;;;7.27;6.57;;;;;;;27.27;45.13;94562.69;5076227;28;20178;-75
2022/06/07 03:59:40;;;;;;;7.50;6.70;;;;;;;27.24;44.79;94568.63;5086532;28;20456;-76
2022/06/07 04:02:06;;;;;;;10.23;7.20;;;;;;;26.98;45.56;94561.13;5086500;28;20779;-76
2022/06/07 04:04:31;;;;;;;9.53;8.37;;;;;;;26.68;46.04;94568.69;5084797;28;20552;-77
2022/06/07 04:09:41;;;;;;;11.30;9.53;;;;;;;26.25;46.86;94555.47;5084977;28;20188;-77
2022/06/07 04:12:11;;;;;;;12.80;11.43;;;;;;;26.21;47.22;94559.84;5086492;28;20480;-76
2022/06/07 04:14:38;;;;;;;13.73;11.00;;;;;;;26.45;47.13;94565.06;5086485;28;20174;-76
2022/06/07 04:17:05;;;;;;;13.80;11.67;;;;;;;24.93;50.30;94564.38;5083631;28;20430;-77
2022/06/07 04:19:31;;;;;;;11.30;10.10;;;;;;;25.14;49.83;94565.72;5083064;28;20463;-76
2022/06/07 04:21:56;;;;;;;21.13;9.93;;;;;;;25.32;49.67;94572.19;5085311;28;20420;-76
2022/06/07 04:24:21;;;;;;;11.53;10.30;;;;;;;25.69;49.18;94580.53;5086168;28;20443;-76
2022/06/07 04:26:47;;;;;;;11.10;10.00;;;;;;;25.80;48.48;94573.91;5085174;28;21021;-77
2022/06/07 04:29:14;;;;;;;11.20;10.10;;;;;;;24.98;50.20;94568.88;5086195;28;20173;-76
2022/06/07 04:31:39;;;;;;;15.57;10.73;;;;;;;25.35;49.78;94573.50;5085774;28;20423;-76
2022/06/07 04:34:05;;;;;;;15.30;11.43;;;;;;;24.89;50.61;94571.38;5085738;28;20464;-76
2022/06/07 04:36:30;;;;;;;15.20;10.50;;;;;;;25.89;48.59;94574.81;5083339;28;20174;-76
2022/06/07 04:38:57;;;;;;;13.53;12.17;;;;;;;25.80;48.20;94576.59;5084854;28;20197;-77
2022/06/07 04:41:23;;;;;;;13.23;11.80;;;;;;;25.41;49.18;94572.34;5085728;28;20177;-75
2022/06/07 04:43:51;;;;;;;13.10;11.03;;;;;;;26.22;47.76;94576.75;5085817;28;20501;-77
2022/06/07 04:46:17;;;;;;;12.00;10.90;;;;;;;26.83;46.14;94572.19;5078422;28;20441;-77
2022/06/07 04:48:45;;;;;;;14.37;11.57;;;;;;;25.93;47.99;94579.66;5080564;28;20445;-76
2022/06/07 04:51:14;;;;;;;12.80;11.03;;;;;;;25.84;48.16;94572.25;5080393;28;20427;-77
2022/06/07 04:53:40;;;;;;;14.60;11.30;;;;;;;25.96;48.18;94568.34;5084935;28;20424;-77
2022/06/07 04:56:11;;;;;;;13.10;11.90;;;;;;;25.94;48.28;94575.88;5083740;28;20423;-76
2022/06/07 04:58:36;;;;;;;12.17;10.97;;;;;;;25.89;48.01;94574.81;5085371;28;20205;-75
2022/06/07 05:01:09;;;;;;;15.20;10.77;;;;;;;25.81;48.63;94578.19;5079676;28;20432;-76
2022/06/07 05:03:34;;;;;;;13.40;12.10;;;;;;;25.77;49.07;94582.53;5083895;28;20181;-76
2022/06/07 05:05:59;;;;;;;15.30;13.80;;;;;;;24.78;51.66;94589.44;5081516;28;20452;-76
2022/06/07 05:08:25;;;;;;;16.50;14.87;;;;;;;25.26;50.48;94589.41;5083542;28;20250;-76
2022/06/07 05:10:51;;;;;;;15.50;13.00;;;;;;;25.77;49.40;94587.91;5085498;28;20174;-76
2022/06/07 05:13:16;;;;;;;14.57;11.10;;;;;;;26.40;47.57;94585.81;5082896;28;20914;-76
2022/06/07 05:15:42;;;;;;;17.03;13.67;;;;;;;24.81;51.11;94593.44;5095728;28;20182;-76
2022/06/07 05:18:08;;;;;;;18.13;13.37;;;;;;;25.60;49.31;94587.63;5073667;28;20182;-75
2022/06/07 05:20:34;;;;;;;15.10;13.43;;;;;;;26.04;48.40;94602.53;5084783;28;20660;-76
2022/06/07 05:23:00;;;;;;;21.47;16.50;;;;;;;25.72;49.38;94590.66;5080059;28;20537;-76
2022/06/07 05:25:25;;;;;;;18.07;16.03;;;;;;;25.65;49.42;94595.56;5083274;28;20405;-76
2022/06/07 05:27:51;;;;;;;17.70;13.50;;;;;;;26.73;47.48;94596.53;5082861;28;20169;-77
2022/06/07 05:30:17;;;;;;;19.10;15.63;;;;;;;27.62;45.78;94601.44;5086044;28;20170;-78
2022/06/07 05:32:42;;;;;;;18.10;15.07;;;;;;;26.95;46.19;94593.94;5084944;28;20199;-76
2022/06/07 05:35:13;;;;;;;19.93;15.83;;;;;;;27.40;45.38;94598.72;5084152;28;20256;-77
2022/06/07 05:37:38;;;;;;;15.03;13.53;;;;;;;27.75;44.94;94599.78;5084296;28;20166;-77
2022/06/07 05:40:04;;;;;;;15.83;13.97;;;;;;;27.71;45.00;94598.81;5083510;28;20551;-76
2022/06/07 05:42:31;;;;;;;16.73;15.00;;;;;;;27.73;44.54;94596.63;5084669;28;20653;-76
2022/06/07 05:44:57;;;;;;;17.10;14.63;;;;;;;27.64;45.12;94595.75;5078599;28;20427;-77
2022/06/07 05:47:23;;;;;;;17.30;15.50;;;;;;;26.84;46.79;94592.56;5082272;28;20506;-76
2022/06/07 05:49:48;;;;;;;17.97;15.97;;;;;;;27.77;44.77;94591.44;5084621;28;20432;-76
2022/06/07 05:52:14;;;;;;;17.43;14.97;;;;;;;27.41;45.21;94593.03;5084521;28;20415;-74
2022/06/07 05:54:39;;;;;;;20.73;15.83;;;;;;;28.06;44.13;94599.13;5078521;28;20342;-74
2022/06/07 05:57:07;;;;;;;23.30;14.90;;;;;;;28.20;44.03;94597.16;5079930;28;20192;-74
2022/06/07 05:59:32;;;;;;;19.13;15.50;;;;;;;28.34;43.27;94596.28;5076400;28;20266;-74
2022/06/07 06:01:58;;;;;;;19.20;15.97;;;;;;;28.52;43.22;94595.31;5083330;28;20412;-74
2022/06/07 06:04:25;;;;;;;15.50;12.73;;;;;;;28.75;42.94;94587.94;5084180;28;20257;-74
2022/06/07 06:06:53;;;;;;;17.07;15.50;;;;;;;28.23;43.42;94593.84;5074796;28;20201;-74
2022/06/07 06:12:03;;;;;;;17.60;15.67;;;;;;;28.79;42.49;94597.00;5067679;28;20491;-74
2022/06/07 06:14:28;;;;;;;18.37;14.90;;;;;;;29.18;41.60;94597.31;5083128;28;20431;-74
2022/06/07 06:16:54;;;;;;;15.00;13.43;;;;;;;29.33;41.28;94593.38;5082758;28;20178;-75
2022/06/07 06:19:20;;;;;;;18.53;13.90;;;;;;;30.03;40.24;94580.75;5083438;28;20280;-75
2022/06/07 06:21:46;;;;;;;18.53;16.80;;;;;;;30.04;40.13;94587.72;5084305;28;20178;-74
2022/06/07 06:24:12;;;;;;;17.00;14.10;;;;;;;30.14;39.64;94584.69;5081627;28;20930;-74
2022/06/07 06:26:39;;;;;;;19.10;14.73;;;;;;;30.96;38.69;94581.16;5084020;28;20198;-75
2022/06/07 06:29:06;;;;;;;19.83;17.73;;;;;;;30.52;38.47;94575.09;5081667;28;20544;-74
2022/06/07 06:31:31;;;;;;;18.17;16.47;;;;;;;30.02;39.72;94584.56;5085144;28;20411;-75
2022/06/07 06:33:57;;;;;;;19.90;16.30;;;;;;;29.91;39.66;94575.19;5078995;28;20483;-75
2022/06/07 06:36:26;;;;;;;20.83;17.70;;;;;;;30.20;39.27;94574.50;5087396;28;20188;-75
2022/06/07 06:38:53;;;;;;;18.17;16.37;;;;;;;29.84;39.91;94573.00;5100351;28;20213;-75
2022/06/07 06:41:27;;;;;;;18.63;16.73;;;;;;;29.29;40.93;94574.34;5080326;28;20439;-75
2022/06/07 06:43:56;;;;;;;17.33;15.73;;;;;;;29.98;40.19;94568.19;5084686;28;20435;-75
2022/06/07 06:46:29;;;;;;;20.73;15.57;;;;;;;28.86;42.36;94572.31;5085664;28;20424;-75
2022/06/07 06:48:55;;;;;;;19.10;17.17;;;;;;;28.08;43.46;94570.00;5086895;28;20471;-75
2022/06/07 06:51:24;;;;;;;15.70;14.30;;;;;;;30.00;40.16;94570.59;5085745;28;20410;-75
2022/06/07 06:53:50;;;;;;;17.87;16.07;;;;;;;29.36;40.96;94566.56;5087528;28;20507;-75
2022/06/07 06:56:20;;;;;;;20.60;18.40;;;;;;;30.09;40.39;94562.47;5087201;28;20439;-75
2022/06/07 06:58:47;;;;;;;15.37;13.97;;;;;;;30.63;39.28;94559.34;5077654;28;20451;-75
2022/06/07 07:01:16;;;;;;;15.57;14.07;;;;;;;31.27;38.09;94561.91;5083026;28;20413;-75
2022/06/07 07:03:43;;;;;;;13.90;12.50;;;;;;;31.52;37.68;94560.16;5088116;28;20430;-74
2022/06/07 07:06:10;;;;;;;14.67;12.77;;;;;;;32.41;35.64;94559.06;5081830;28;20508;-74
2022/06/07 07:08:37;;;;;;;14.77;13.27;;;;;;;31.46;37.39;94557.97;5095340;28;20469;-75
2022/06/07 07:11:07;;;;;;;15.60;14.10;;;;;;;31.75;36.55;94562.53;5084775;28;20435;-74
2022/06/07 07:13:33;;;;;;;16.20;14.37;;;;;;;31.69;37.00;94555.75;5086823;28;21090;-74
2022/06/07 07:15:59;;;;;;;16.80;15.13;;;;;;;31.49;36.66;94549.19;5083176;28;20422;-75
2022/06/07 07:18:25;;;;;;;16.83;15.20;;;;;;;31.30;37.43;94555.84;5083322;28;20443;-74
2022/06/07 07:20:51;;;;;;;20.57;17.07;;;;;;;31.39;37.74;94547.66;5079978;28;20451;-74
2022/06/07 07:23:16;;;;;;;17.87;16.30;;;;;;;31.10;38.16;94557.38;5069686;28;20238;-74
2022/06/07 07:25:42;;;;;;;17.50;15.87;;;;;;;31.92;36.69;94553.47;5071639;28;20459;-74
2022/06/07 07:28:08;;;;;;;25.33;15.73;;;;;;;31.97;36.78;94550.56;5072437;28;20248;-74
2022/06/07 07:30:34;;;;;;;19.70;17.83;;;;;;;30.54;38.98;94549.38;5075111;28;20447;-74
2022/06/07 07:33:00;;;;;;;18.37;16.57;;;;;;;30.99;38.51;94544.56;5071852;28;20676;-74
2022/06/07 07:35:26;;;;;;;18.10;15.93;;;;;;;31.64;37.02;94537.78;5073167;28;20806;-74
2022/06/07 07:37:51;;;;;;;17.47;15.77;;;;;;;31.70;37.18;94538.34;5073399;28;20182;-74
2022/06/07 07:40:17;;;;;;;18.97;17.03;;;;;;;32.00;36.30;94541.75;5070566;28;20499;-74
2022/06/07 07:42:42;;;;;;;17.23;15.63;;;;;;;32.25;36.58;94541.84;5072683;28;20170;-74
2022/06/07 07:45:09;;;;;;;17.03;15.43;;;;;;;31.99;37.03;94536.69;5071669;28;20626;-74
2022/06/07 07:47:35;;;;;;;16.50;14.90;;;;;;;32.24;35.79;94532.94;5073842;28;20181;-74
2022/06/07 07:50:01;;;;;;;15.60;14.07;;;;;;;31.59;36.47;94524.47;5072800;28;20417;-74
2022/06/07 07:52:27;;;;;;;13.70;12.33;;;;;;;32.66;34.58;94532.03;5076957;28;20212;-74
2022/06/07 07:54:53;;;;;;;13.40;12.07;;;;;;;33.06;33.65;94523.19;5067686;28;20178;-74
2022/06/07 07:57:19;;;;;;;18.70;12.87;;;;;;;32.38;34.39;94521.78;5075197;28;20995;-74
2022/06/07 07:59:44;;;;;;;14.53;12.37;;;;;;;32.21;35.24;94522.78;5072013;28;20463;-74
2022/06/07 08:02:21;;;;;;;13.03;11.80;;;;;;;32.19;35.28;94510.69;5070150;28;20179;-74
2022/06/07 08:04:47;;;;;;;16.60;12.37;;;;;;;31.20;36.39;94512.94;5075477;28;20161;-74
2022/06/07 08:07:13;;;;;;;14.50;12.87;;;;;;;31.79;35.72;94506.59;5073124;28;20617;-74
2022/06/07 08:09:39;;;;;;;11.53;10.60;;;;;;;32.26;34.86;94502.81;5074195;28;20186;-74
2022/06/07 08:12:08;;;;;;;10.33;9.43;;;;;;;30.78;36.45;94502.03;5073259;28;20332;-75
2022/06/07 08:14:35;;;;;;;11.13;10.10;;;;;;;31.00;36.78;94490.19;5073796;28;20429;-75
2022/06/07 08:17:02;;;;;;;9.40;8.70;;;;;;;31.83;34.85;94496.69;5072665;28;20431;-74
2022/06/07 08:19:28;;;;;;;9.30;7.93;;;;;;;32.20;33.79;94494.13;5075759;28;20471;-74
2022/06/07 08:21:53;;;;;;;9.50;8.80;;;;;;;32.13;33.74;94493.09;5074493;28;20454;-74
2022/06/07 08:24:19;;;;;;;7.67;6.97;;;;;;;31.17;34.27;94486.56;5073449;28;20312;-75
2022/06/07 08:26:46;;;;;;;8.57;7.70;;;;;;;31.02;35.03;94479.03;5079813;28;20182;-74
2022/06/07 08:29:12;;;;;;;8.50;7.70;;;;;;;30.16;36.31;94471.78;5083219;28;20688;-74
2022/06/07 08:31:38;;;;;;;9.00;7.77;;;;;;;31.45;35.04;94472.50;5082992;28;20432;-74
2022/06/07 08:39:34;;;;;;;5.73;5.23;;;;;;;32.53;30.78;94468.84;5084373;28;20474;-74
2022/06/07 08:42:02;;;;;;;6.03;5.30;;;;;;;33.23;29.49;94471.44;5099047;28;20412;-75
2022/06/07 08:44:50;;;;;;;5.90;4.43;;;;;;;33.26;29.73;94473.47;5084555;28;20439;-75
2022/06/07 08:47:23;;;;;;;8.97;5.43;;;;;;;33.17;29.31;94463.88;5077015;28;20439;-75
2022/06/07 08:49:52;;;;;;;6.43;5.27;;;;;;;32.68;29.62;94467.41;5083210;28;20416;-75
2022/06/07 08:52:25;;;;;;;5.00;4.60;;;;;;;33.58;28.38;94462.72;5083857;28;20445;-75
2022/06/07 08:54:50;;;;;;;6.33;3.60;;;;;;;34.40;27.77;94457.91;5080451;28;20833;-75
2022/06/07 08:57:24;;;;;;;4.60;4.30;;;;;;;34.62;27.43;94456.47;5082762;28;20550;-76
2022/06/07 08:59:55;;;;;;;4.73;3.40;;;;;;;33.90;26.04;94451.94;5083217;28;20283;-74
2022/06/07 09:02:43;;;;;;;3.43;3.30;;;;;;;33.45;27.10;94439.50;5079411;28;20451;-74
2022/06/07 09:05:16;;;;;;;6.93;4.17;;;;;;;34.33;26.02;94447.63;5084163;28;20414;-74
2022/06/07 09:07:43;;;;;;;6.23;4.10;;;;;;;34.45;26.84;94438.59;5076446;28;20430;-74
2022/06/07 09:13:07;;;;;;;5.10;3.40;;;;;;;34.15;25.10;94440.94;5080284;28;20426;-75
2022/06/07 09:15:35;;;;;;;4.30;2.67;;;;;;;32.53;27.25;94447.19;5079843;28;20526;-75
2022/06/07 09:18:04;;;;;;;5.57;5.10;;;;;;;31.23;29.71;94433.88;5077947;28;20475;-74
2022/06/07 09:20:38;;;;;;;7.87;4.27;;;;;;;32.41;28.09;94436.34;5079247;28;20463;-75
2022/06/07 09:23:29;;;;;;;5.63;5.13;;;;;;;31.55;28.79;94438.84;5078461;28;20431;-74
2022/06/07 09:25:58;;;;;;;4.93;4.63;;;;;;;32.32;28.38;94431.03;5082116;28;20433;-75
2022/06/07 09:28:30;;;;;;;5.63;5.23;;;;;;;32.59;27.52;94434.22;5084456;28;20447;-74
2022/06/07 09:31:09;;;;;;;6.53;6.03;;;;;;;33.09;27.22;94430.31;5081487;28;20555;-75
2022/06/07 09:33:56;;;;;;;5.80;5.17;;;;;;;34.50;25.63;94416.59;5079063;28;20459;-75
2022/06/07 09:36:25;;;;;;;6.00;4.90;;;;;;;35.37;24.63;94427.44;5076351;28;20520;-77
2022/06/07 09:39:00;;;;;;;5.20;4.70;;;;;;;34.35;25.24;94417.41;5076309;28;20460;-76
2022/06/07 09:41:48;;;;;;;5.33;4.97;;;;;;;34.73;24.87;94415.97;5100928;28;20427;-76
2022/06/07 09:44:25;;;;;;;6.73;4.90;;;;;;;34.75;25.30;94419.13;5083717;28;20419;-77
2022/06/07 09:47:03;;;;;;;6.43;5.83;;;;;;;32.71;27.49;94417.16;5086055;28;20444;-77
2022/06/07 09:49:41;;;;;;;4.90;4.60;;;;;;;34.12;25.69;94406.34;5078860;28;20446;-78
2022/06/07 09:52:12;;;;;;;7.90;4.63;;;;;;;33.93;26.32;94396.94;5080507;28;20409;-76
2022/06/07 09:54:41;;;;;;;5.00;4.70;;;;;;;34.82;25.60;94392.09;5076190;28;20442;-77
2022/06/07 09:57:21;;;;;;;4.80;4.50;;;;;;;34.39;25.68;94407.41;5072423;28;20440;-76
2022/06/07 10:00:05;;;;;;;5.10;4.70;;;;;;;34.10;26.33;94390.38;5072640;28;20869;-75
2022/06/07 10:02:45;;;;;;;4.77;4.23;;;;;;;34.30;26.12;94390.47;5072303;28;20503;-75
2022/06/07 10:05:23;;;;;;;5.07;4.67;;;;;;;34.20;26.53;94389.88;5077321;28;20425;-76
2022/06/07 10:08:05;;;;;;;5.47;4.97;;;;;;;33.32;26.72;94389.91;5079131;28;20438;-75
2022/06/07 10:11:04;;;;;;;5.10;4.73;;;;;;;33.82;26.41;94388.53;5075187;28;20423;-75
2022/06/07 10:13:45;;;;;;;4.90;4.60;;;;;;;33.33;25.87;94380.63;5077921;28;20435;-75
2022/06/07 10:16:49;;;;;;;9.93;4.90;;;;;;;33.75;25.71;94380.22;5079913;28;20823;-77
2022/06/07 10:19:44;;;;;;;4.57;4.17;;;;;;;33.68;25.70;94369.16;5065677;28;20512;-76
2022/06/07 10:22:15;;;;;;;5.30;4.90;;;;;;;33.92;25.67;94368.22;5081270;28;20435;-77
2022/06/07 10:24:47;;;;;;;6.47;5.87;;;;;;;32.41;28.20;94374.81;5083599;28;20420;-77
2022/06/07 10:27:39;;;;;;;5.20;4.73;;;;;;;34.50;26.02;94370.38;5085111;28;20450;-77
2022/06/07 10:30:18;;;;;;;6.13;5.57;;;;;;;34.69;25.02;94369.66;5082777;28;20419;-77
2022/06/07 10:32:47;;;;;;;5.20;4.80;;;;;;;34.65;24.90;94366.06;5079065;28;20888;-76
2022/06/07 10:35:41;;;;;;;4.47;4.07;;;;;;;35.15;24.71;94364.38;5082031;28;20459;-77
2022/06/07 10:38:33;;;;;;;5.70;4.90;;;;;;;35.29;24.64;94360.44;5084219;28;20464;-77
2022/06/07 10:41:01;;;;;;;5.87;5.47;;;;;;;35.68;23.68;94363.09;5087282;28;20454;-77
2022/06/07 10:43:39;;;;;;;5.33;4.67;;;;;;;35.89;23.89;94349.06;5084187;28;20412;-78
2022/06/07 10:46:11;;;;;;;5.77;5.47;;;;;;;35.36;25.19;94355.09;5084594;28;20776;-77
2022/06/07 10:48:50;;;;;;;4.43;4.13;;;;;;;35.80;23.83;94346.59;5085008;28;20477;-77
2022/06/07 10:54:20;;;;;;;5.13;4.83;;;;;;;36.72;22.97;94346.47;5084661;28;20395;-76
2022/06/07 10:56:56;;;;;;;4.63;4.23;;;;;;;36.09;23.60;94336.16;5083583;28;20436;-76
2022/06/07 10:59:23;;;;;;;2.67;2.43;;;;;;;34.56;24.04;94335.56;5082037;28;20444;-76
2022/06/07 11:02:00;;;;;;;5.57;4.20;;;;;;;34.75;24.25;94324.72;5081353;28;20431;-76
2022/06/07 11:10:22;;;;;;;6.40;4.40;;;;;;;35.39;24.73;94338.06;5080541;28;20485;-76
2022/06/07 11:12:54;;;;;;;5.93;4.33;;;;;;;35.33;25.04;94336.78;5083790;28;20424;-76
2022/06/07 11:15:38;;;;;;;4.40;4.10;;;;;;;35.04;25.23;94328.03;5084008;28;20443;-77
2022/06/07 11:18:17;;;;;;;4.20;4.00;;;;;;;34.98;25.22;94326.72;5078765;28;20436;-78
2022/06/07 11:21:00;;;;;;;4.47;3.90;;;;;;;35.00;25.05;94324.44;5086203;28;20840;-77
2022/06/07 11:23:31;;;;;;;4.50;4.20;;;;;;;35.71;24.44;94324.25;5087901;28;20416;-76
2022/06/07 11:26:14;;;;;;;5.90;5.40;;;;;;;35.46;24.87;94327.31;5086842;28;20432;-77
2022/06/07 11:28:39;;;;;;;5.07;4.77;;;;;;;35.52;24.39;94325.84;5084278;28;20402;-76
2022/06/07 11:31:23;;;;;;;7.00;5.07;;;;;;;35.88;23.73;94326.50;5084716;28;20438;-76
2022/06/07 11:33:51;;;;;;;4.60;4.30;;;;;;;35.34;24.01;94320.06;5102401;28;20217;-77
2022/06/07 11:36:19;;;;;;;6.97;4.67;;;;;;;33.22;26.29;94315.22;5087395;28;20732;-76
2022/06/07 11:39:22;;;;;;;7.67;6.97;;;;;;;34.19;25.38;94314.94;5086843;28;20542;-76
2022/06/07 11:41:51;;;;;;;6.10;4.63;;;;;;;34.07;24.97;94316.94;5075355;28;20435;-77
2022/06/07 11:44:17;;;;;;;5.13;4.70;;;;;;;33.70;25.87;94309.09;5117336;28;20443;-76
2022/06/07 11:46:51;;;;;;;5.93;5.53;;;;;;;33.52;26.60;94306.69;5082744;28;20470;-76
2022/06/07 11:49:20;;;;;;;4.87;4.47;;;;;;;35.30;24.50;94302.09;5086852;28;20175;-75
2022/06/07 11:52:19;;;;;;;5.47;4.97;;;;;;;35.99;24.13;94293.97;5080912;28;20454;-76
2022/06/07 11:54:54;;;;;;;4.67;4.27;;;;;;;35.69;23.81;94294.66;5079728;28;20426;-76
2022/06/07 11:57:38;;;;;;;5.17;4.77;;;;;;;36.34;23.09;94288.28;5087530;28;20434;-76
2022/06/07 12:00:19;;;;;;;4.63;4.23;;;;;;;35.88;23.35;94288.34;5086748;28;20443;-76
2022/06/07 12:02:54;;;;;;;5.27;4.80;;;;;;;36.65;22.38;94264.53;5087262;28;20416;-76
2022/06/07 12:05:30;;;;;;;4.50;4.30;;;;;;;37.12;21.65;94274.03;5088032;28;20427;-76
2022/06/07 12:08:00;;;;;;;4.83;4.33;;;;;;;35.53;23.85;94272.94;5086983;28;20439;-76